West Monroe, Louisiana
Current Conditions -  °F | °C
As of 6:53 PM on Friday 28 Nov 2014 (Local Time) from KMLU Reporting Station
Clear Clear  
Wind Chill: 51°   Ceiling: Unl
Heat Index: 51°   Visibility: 10mi
Dew Point: 36°   Wind: 6mph
Humidity: 56%   Direction: 160°SSE
Pressure: 30.19"   Gusts: NA
Location:  32.5°N, 92.13°W
Report Text: KMLU 290053Z 16005KT 10SM CLR 11/02 A3019 RMK AO2 SLP222 T01060022
Loading
Personal Weather Stations






























Interactive Weather Map New forecast layout! Learn more

10-Day Weather Forecast

Advertisements
Track Severe Weather on mobile